sensor_id;sensor_type;location;lat;lon;timestamp;P1;durP1;ratioP1;P2;durP2;ratioP2
21488;SDS011;10906;45.194;5.684;2023-02-01T06:00:37;25.90;;;16.75;;
21488;SDS011;10906;45.194;5.684;2023-02-01T06:03:22;24.63;;;16.75;;
21488;SDS011;10906;45.194;5.684;2023-02-01T06:06:06;25.40;;;16.25;;
21488;SDS011;10906;45.194;5.684;2023-02-01T06:08:51;25.52;;;16.33;;
21488;SDS011;10906;45.194;5.684;2023-02-01T06:11:38;30.50;;;17.35;;
21488;SDS011;10906;45.194;5.684;2023-02-01T06:14:23;26.63;;;16.02;;
21488;SDS011;10906;45.194;5.684;2023-02-01T06:17:08;34.08;;;19.85;;
21488;SDS011;10906;45.194;5.684;2023-02-01T06:19:53;27.48;;;16.38;;
21488;SDS011;10906;45.194;5.684;2023-02-01T06:22:40;46.70;;;30.75;;
21488;SDS011;10906;45.194;5.684;2023-02-01T06:25:24;31.95;;;21.08;;
21488;SDS011;10906;45.194;5.684;2023-02-01T06:28:09;25.75;;;16.95;;
21488;SDS011;10906;45.194;5.684;2023-02-01T06:30:54;110.35;;;92.18;;
21488;SDS011;10906;45.194;5.684;2023-02-01T06:33:38;29.05;;;19.08;;
21488;SDS011;10906;45.194;5.684;2023-02-01T06:36:24;54.35;;;41.38;;
21488;SDS011;10906;45.194;5.684;2023-02-01T06:39:08;27.83;;;16.63;;
21488;SDS011;10906;45.194;5.684;2023-02-01T06:41:53;29.27;;;16.25;;
21488;SDS011;10906;45.194;5.684;2023-02-01T06:44:37;24.45;;;16.30;;
21488;SDS011;10906;45.194;5.684;2023-02-01T06:47:22;25.20;;;15.15;;
21488;SDS011;10906;45.194;5.684;2023-02-01T06:50:07;28.58;;;16.10;;
21488;SDS011;10906;45.194;5.684;2023-02-01T06:52:52;27.05;;;15.85;;
21488;SDS011;10906;45.194;5.684;2023-02-01T06:55:36;26.05;;;15.80;;
21488;SDS011;10906;45.194;5.684;2023-02-01T06:58:21;21.73;;;14.60;;
21488;SDS011;10906;45.194;5.684;2023-02-01T07:01:07;24.42;;;15.20;;
21488;SDS011;10906;45.194;5.684;2023-02-01T07:03:52;23.98;;;15.05;;
21488;SDS011;10906;45.194;5.684;2023-02-01T07:06:37;27.70;;;16.25;;
21488;SDS011;10906;45.194;5.684;2023-02-01T07:09:25;25.30;;;17.17;;
21488;SDS011;10906;45.194;5.684;2023-02-01T07:12:10;27.50;;;17.45;;
21488;SDS011;10906;45.194;5.684;2023-02-01T07:14:54;175.75;;;118.90;;
21488;SDS011;10906;45.194;5.684;2023-02-01T07:17:40;261.52;;;169.13;;
21488;SDS011;10906;45.194;5.684;2023-02-01T07:20:24;177.43;;;116.97;;
21488;SDS011;10906;45.194;5.684;2023-02-01T07:23:12;96.78;;;64.45;;
21488;SDS011;10906;45.194;5.684;2023-02-01T07:25:58;139.93;;;111.45;;
21488;SDS011;10906;45.194;5.684;2023-02-01T07:28:44;80.45;;;66.00;;
21488;SDS011;10906;45.194;5.684;2023-02-01T07:31:28;114.20;;;92.60;;
21488;SDS011;10906;45.194;5.684;2023-02-01T07:34:13;97.90;;;76.43;;
21488;SDS011;10906;45.194;5.684;2023-02-01T07:37:00;35.92;;;21.92;;
21488;SDS011;10906;45.194;5.684;2023-02-01T07:39:44;24.75;;;15.90;;
21488;SDS011;10906;45.194;5.684;2023-02-01T07:42:29;26.13;;;16.10;;
21488;SDS011;10906;45.194;5.684;2023-02-01T07:45:14;28.70;;;18.90;;
21488;SDS011;10906;45.194;5.684;2023-02-01T07:47:59;31.95;;;16.75;;
21488;SDS011;10906;45.194;5.684;2023-02-01T07:50:44;34.97;;;16.23;;
21488;SDS011;10906;45.194;5.684;2023-02-01T07:53:29;25.48;;;15.57;;
21488;SDS011;10906;45.194;5.684;2023-02-01T07:56:18;26.35;;;16.05;;
21488;SDS011;10906;45.194;5.684;2023-02-01T07:59:04;28.77;;;15.32;;
21488;SDS011;10906;45.194;5.684;2023-02-01T08:01:48;25.42;;;15.27;;
21488;SDS011;10906;45.194;5.684;2023-02-01T08:04:35;27.70;;;16.25;;
21488;SDS011;10906;45.194;5.684;2023-02-01T08:07:20;27.50;;;16.55;;
21488;SDS011;10906;45.194;5.684;2023-02-01T08:10:05;29.30;;;16.42;;
21488;SDS011;10906;45.194;5.684;2023-02-01T08:12:57;24.13;;;15.27;;
21488;SDS011;10906;45.194;5.684;2023-02-01T08:15:43;23.42;;;16.00;;
21488;SDS011;10906;45.194;5.684;2023-02-01T08:18:28;24.00;;;15.45;;
21488;SDS011;10906;45.194;5.684;2023-02-01T08:21:13;22.70;;;14.45;;
21488;SDS011;10906;45.194;5.684;2023-02-01T08:24:00;23.77;;;15.15;;
21488;SDS011;10906;45.194;5.684;2023-02-01T08:26:47;22.67;;;14.32;;
21488;SDS011;10906;45.194;5.684;2023-02-01T08:29:32;23.38;;;14.65;;
21488;SDS011;10906;45.194;5.684;2023-02-01T08:32:16;27.45;;;13.90;;
21488;SDS011;10906;45.194;5.684;2023-02-01T08:35:01;25.25;;;15.18;;
21488;SDS011;10906;45.194;5.684;2023-02-01T08:37:46;25.58;;;15.63;;
21488;SDS011;10906;45.194;5.684;2023-02-01T08:40:31;25.65;;;14.00;;
21488;SDS011;10906;45.194;5.684;2023-02-01T08:43:16;22.98;;;13.77;;
21488;SDS011;10906;45.194;5.684;2023-02-01T08:46:00;21.80;;;13.65;;
21488;SDS011;10906;45.194;5.684;2023-02-01T08:48:46;22.55;;;13.52;;
21488;SDS011;10906;45.194;5.684;2023-02-01T08:51:31;19.15;;;12.55;;
21488;SDS011;10906;45.194;5.684;2023-02-01T08:54:16;20.17;;;12.32;;
21488;SDS011;10906;45.194;5.684;2023-02-01T08:57:01;21.95;;;12.27;;
21488;SDS011;10906;45.194;5.684;2023-02-01T08:59:49;20.13;;;11.00;;
21488;SDS011;10906;45.194;5.684;2023-02-01T09:02:34;18.00;;;10.50;;
21488;SDS011;10906;45.194;5.684;2023-02-01T09:05:21;19.83;;;11.15;;
21488;SDS011;10906;45.194;5.684;2023-02-01T09:08:07;27.35;;;11.93;;
21488;SDS011;10906;45.194;5.684;2023-02-01T09:10:51;21.40;;;12.85;;
21488;SDS011;10906;45.194;5.684;2023-02-01T09:13:36;28.00;;;12.73;;
21488;SDS011;10906;45.194;5.684;2023-02-01T09:16:20;22.45;;;13.05;;
21488;SDS011;10906;45.194;5.684;2023-02-01T09:19:05;19.83;;;12.82;;
21488;SDS011;10906;45.194;5.684;2023-02-01T09:21:49;22.52;;;12.02;;
21488;SDS011;10906;45.194;5.684;2023-02-01T09:24:34;19.73;;;11.23;;
21488;SDS011;10906;45.194;5.684;2023-02-01T09:27:19;24.75;;;12.02;;
21488;SDS011;10906;45.194;5.684;2023-02-01T09:30:04;21.00;;;12.40;;
21488;SDS011;10906;45.194;5.684;2023-02-01T09:32:49;23.15;;;12.30;;
21488;SDS011;10906;45.194;5.684;2023-02-01T09:35:33;21.17;;;11.95;;
21488;SDS011;10906;45.194;5.684;2023-02-01T09:38:18;18.80;;;11.73;;
21488;SDS011;10906;45.194;5.684;2023-02-01T09:41:07;18.75;;;10.98;;
21488;SDS011;10906;45.194;5.684;2023-02-01T09:47:18;22.27;;;13.05;;
21488;SDS011;10906;45.194;5.684;2023-02-01T09:50:16;20.30;;;13.23;;
21488;SDS011;10906;45.194;5.684;2023-02-01T09:53:13;16.95;;;10.18;;
21488;SDS011;10906;45.194;5.684;2023-02-01T09:56:12;20.98;;;12.10;;
21488;SDS011;10906;45.194;5.684;2023-02-01T10:01:51;20.73;;;10.90;;
21488;SDS011;10906;45.194;5.684;2023-02-01T10:04:38;16.48;;;11.50;;
21488;SDS011;10906;45.194;5.684;2023-02-01T10:07:47;19.95;;;12.13;;
21488;SDS011;10906;45.194;5.684;2023-02-01T10:10:36;22.02;;;11.57;;
21488;SDS011;10906;45.194;5.684;2023-02-01T10:16:16;16.90;;;11.88;;
21488;SDS011;10906;45.194;5.684;2023-02-01T10:19:14;17.98;;;12.18;;
21488;SDS011;10906;45.194;5.684;2023-02-01T10:22:17;23.13;;;15.15;;
21488;SDS011;10906;45.194;5.684;2023-02-01T10:27:51;23.13;;;14.23;;
21488;SDS011;10906;45.194;5.684;2023-02-01T10:30:43;19.95;;;13.75;;
21488;SDS011;10906;45.194;5.684;2023-02-01T10:33:32;24.17;;;13.82;;
21488;SDS011;10906;45.194;5.684;2023-02-01T10:36:25;21.15;;;12.38;;
21488;SDS011;10906;45.194;5.684;2023-02-01T10:39:14;20.23;;;12.95;;
21488;SDS011;10906;45.194;5.684;2023-02-01T10:41:58;20.50;;;13.98;;
21488;SDS011;10906;45.194;5.684;2023-02-01T10:44:43;18.00;;;11.75;;
21488;SDS011;10906;45.194;5.684;2023-02-01T10:47:31;21.80;;;12.77;;
21488;SDS011;10906;45.194;5.684;2023-02-01T10:50:17;25.55;;;12.70;;
21488;SDS011;10906;45.194;5.684;2023-02-01T10:53:30;19.05;;;11.48;;
21488;SDS011;10906;45.194;5.684;2023-02-01T10:56:24;18.60;;;12.48;;
21488;SDS011;10906;45.194;5.684;2023-02-01T10:59:28;21.02;;;12.25;;
21488;SDS011;10906;45.194;5.684;2023-02-01T11:02:24;18.70;;;11.93;;
21488;SDS011;10906;45.194;5.684;2023-02-01T11:05:22;17.90;;;11.98;;
21488;SDS011;10906;45.194;5.684;2023-02-01T11:08:14;17.40;;;10.95;;
21488;SDS011;10906;45.194;5.684;2023-02-01T11:11:02;19.85;;;11.40;;
21488;SDS011;10906;45.194;5.684;2023-02-01T11:13:54;17.88;;;10.55;;
21488;SDS011;10906;45.194;5.684;2023-02-01T11:19:44;19.52;;;9.32;;
21488;SDS011;10906;45.194;5.684;2023-02-01T11:22:29;13.68;;;8.38;;
21488;SDS011;10906;45.194;5.684;2023-02-01T11:25:14;12.15;;;7.70;;
21488;SDS011;10906;45.194;5.684;2023-02-01T11:28:03;13.68;;;7.70;;
21488;SDS011;10906;45.194;5.684;2023-02-01T11:30:56;13.00;;;6.85;;
21488;SDS011;10906;45.194;5.684;2023-02-01T11:33:48;11.07;;;7.28;;
21488;SDS011;10906;45.194;5.684;2023-02-01T11:36:38;12.70;;;6.75;;
21488;SDS011;10906;45.194;5.684;2023-02-01T11:39:30;12.43;;;8.55;;
21488;SDS011;10906;45.194;5.684;2023-02-01T11:42:17;11.50;;;8.90;;
21488;SDS011;10906;45.194;5.684;2023-02-01T11:45:23;10.07;;;6.75;;
21488;SDS011;10906;45.194;5.684;2023-02-01T11:48:14;10.88;;;7.22;;
21488;SDS011;10906;45.194;5.684;2023-02-01T11:57:26;14.77;;;7.15;;
21488;SDS011;10906;45.194;5.684;2023-02-01T12:00:41;11.15;;;5.88;;
21488;SDS011;10906;45.194;5.684;2023-02-01T12:12:16;9.32;;;5.63;;
21488;SDS011;10906;45.194;5.684;2023-02-01T12:24:49;5.90;;;4.47;;
21488;SDS011;10906;45.194;5.684;2023-02-01T12:28:02;10.60;;;5.05;;
21488;SDS011;10906;45.194;5.684;2023-02-01T12:34:26;8.10;;;4.38;;
21488;SDS011;10906;45.194;5.684;2023-02-01T12:37:18;6.20;;;4.05;;
21488;SDS011;10906;45.194;5.684;2023-02-01T12:43:13;7.22;;;3.90;;
21488;SDS011;10906;45.194;5.684;2023-02-01T12:51:47;5.20;;;4.03;;
21488;SDS011;10906;45.194;5.684;2023-02-01T12:54:39;9.40;;;3.83;;
21488;SDS011;10906;45.194;5.684;2023-02-01T12:57:42;3.28;;;2.00;;
21488;SDS011;10906;45.194;5.684;2023-02-01T13:00:32;5.22;;;2.55;;
21488;SDS011;10906;45.194;5.684;2023-02-01T13:06:18;5.80;;;1.60;;
21488;SDS011;10906;45.194;5.684;2023-02-01T13:12:28;3.72;;;1.40;;
21488;SDS011;10906;45.194;5.684;2023-02-01T13:15:37;1.85;;;1.52;;
21488;SDS011;10906;45.194;5.684;2023-02-01T13:18:26;1.60;;;1.25;;
21488;SDS011;10906;45.194;5.684;2023-02-01T13:21:21;1.38;;;1.20;;
21488;SDS011;10906;45.194;5.684;2023-02-01T13:24:16;2.55;;;1.40;;
21488;SDS011;10906;45.194;5.684;2023-02-01T13:27:05;6.78;;;1.83;;
21488;SDS011;10906;45.194;5.684;2023-02-01T13:32:55;4.50;;;1.77;;
21488;SDS011;10906;45.194;5.684;2023-02-01T13:45:05;6.25;;;1.70;;
21488;SDS011;10906;45.194;5.684;2023-02-01T13:48:00;10.07;;;2.15;;
21488;SDS011;10906;45.194;5.684;2023-02-01T13:50:52;9.00;;;1.67;;
21488;SDS011;10906;45.194;5.684;2023-02-01T13:53:44;5.57;;;2.03;;
21488;SDS011;10906;45.194;5.684;2023-02-01T13:56:39;11.60;;;2.30;;
21488;SDS011;10906;45.194;5.684;2023-02-01T14:02:50;3.92;;;2.15;;
21488;SDS011;10906;45.194;5.684;2023-02-01T14:11:34;2.58;;;1.70;;
21488;SDS011;10906;45.194;5.684;2023-02-01T14:23:28;2.03;;;1.45;;
21488;SDS011;10906;45.194;5.684;2023-02-01T14:26:41;2.65;;;1.85;;
21488;SDS011;10906;45.194;5.684;2023-02-01T14:29:31;2.10;;;1.70;;
21488;SDS011;10906;45.194;5.684;2023-02-01T14:32:21;5.53;;;2.10;;
21488;SDS011;10906;45.194;5.684;2023-02-01T14:35:16;4.07;;;2.13;;
21488;SDS011;10906;45.194;5.684;2023-02-01T14:38:04;2.50;;;1.60;;
21488;SDS011;10906;45.194;5.684;2023-02-01T14:40:51;6.68;;;1.80;;
21488;SDS011;10906;45.194;5.684;2023-02-01T14:43:49;3.15;;;1.50;;
21488;SDS011;10906;45.194;5.684;2023-02-01T14:47:05;6.40;;;2.17;;
21488;SDS011;10906;45.194;5.684;2023-02-01T14:58:57;5.57;;;2.15;;
21488;SDS011;10906;45.194;5.684;2023-02-01T15:01:50;5.38;;;2.53;;
21488;SDS011;10906;45.194;5.684;2023-02-01T15:04:42;3.60;;;2.35;;
21488;SDS011;10906;45.194;5.684;2023-02-01T15:07:36;6.13;;;2.22;;
21488;SDS011;10906;45.194;5.684;2023-02-01T15:10:21;5.30;;;2.33;;
21488;SDS011;10906;45.194;5.684;2023-02-01T15:13:11;3.92;;;2.47;;
21488;SDS011;10906;45.194;5.684;2023-02-01T15:16:03;4.88;;;2.15;;
21488;SDS011;10906;45.194;5.684;2023-02-01T15:19:07;6.50;;;2.70;;
21488;SDS011;10906;45.194;5.684;2023-02-01T15:21:55;3.10;;;2.40;;
21488;SDS011;10906;45.194;5.684;2023-02-01T15:24:40;2.97;;;2.00;;
21488;SDS011;10906;45.194;5.684;2023-02-01T15:27:25;2.75;;;2.20;;
21488;SDS011;10906;45.194;5.684;2023-02-01T15:30:18;6.85;;;2.50;;
21488;SDS011;10906;45.194;5.684;2023-02-01T15:33:14;4.55;;;2.22;;
21488;SDS011;10906;45.194;5.684;2023-02-01T15:36:15;3.73;;;2.30;;
21488;SDS011;10906;45.194;5.684;2023-02-01T15:42:08;8.65;;;3.42;;
21488;SDS011;10906;45.194;5.684;2023-02-01T15:44:59;4.57;;;2.80;;
21488;SDS011;10906;45.194;5.684;2023-02-01T15:47:46;7.25;;;2.90;;
21488;SDS011;10906;45.194;5.684;2023-02-01T15:50:32;5.93;;;3.10;;
21488;SDS011;10906;45.194;5.684;2023-02-01T15:53:21;7.30;;;3.20;;
21488;SDS011;10906;45.194;5.684;2023-02-01T15:56:15;4.90;;;2.75;;
21488;SDS011;10906;45.194;5.684;2023-02-01T15:59:05;5.03;;;3.63;;
21488;SDS011;10906;45.194;5.684;2023-02-01T16:09:16;3.92;;;2.00;;
21488;SDS011;10906;45.194;5.684;2023-02-01T16:11:57;5.47;;;2.13;;
21488;SDS011;10906;45.194;5.684;2023-02-01T16:14:43;6.25;;;2.45;;
21488;SDS011;10906;45.194;5.684;2023-02-01T16:17:28;4.90;;;2.90;;
21488;SDS011;10906;45.194;5.684;2023-02-01T16:20:12;3.00;;;1.83;;
21488;SDS011;10906;45.194;5.684;2023-02-01T16:22:57;8.90;;;1.80;;
21488;SDS011;10906;45.194;5.684;2023-02-01T16:25:54;3.40;;;1.73;;
21488;SDS011;10906;45.194;5.684;2023-02-01T16:28:41;4.03;;;2.30;;
21488;SDS011;10906;45.194;5.684;2023-02-01T16:34:38;4.70;;;1.90;;
21488;SDS011;10906;45.194;5.684;2023-02-01T16:37:26;5.95;;;2.10;;
21488;SDS011;10906;45.194;5.684;2023-02-01T16:40:13;3.33;;;1.77;;
21488;SDS011;10906;45.194;5.684;2023-02-01T16:42:58;4.35;;;1.80;;
21488;SDS011;10906;45.194;5.684;2023-02-01T16:45:46;4.65;;;1.92;;
21488;SDS011;10906;45.194;5.684;2023-02-01T16:48:33;2.50;;;1.67;;
21488;SDS011;10906;45.194;5.684;2023-02-01T16:51:19;6.47;;;1.98;;
21488;SDS011;10906;45.194;5.684;2023-02-01T16:54:07;5.40;;;1.63;;
21488;SDS011;10906;45.194;5.684;2023-02-01T16:57:07;3.95;;;1.90;;
21488;SDS011;10906;45.194;5.684;2023-02-01T17:04:12;4.05;;;1.90;;
21488;SDS011;10906;45.194;5.684;2023-02-01T17:08:05;2.22;;;1.42;;
21488;SDS011;10906;45.194;5.684;2023-02-01T17:44:00;4.13;;;2.33;;
21488;SDS011;10906;45.194;5.684;2023-02-01T17:46:45;3.17;;;2.08;;
21488;SDS011;10906;45.194;5.684;2023-02-01T17:49:30;7.72;;;2.15;;
21488;SDS011;10906;45.194;5.684;2023-02-01T17:52:25;5.25;;;2.25;;
21488;SDS011;10906;45.194;5.684;2023-02-01T17:55:15;3.25;;;2.15;;
21488;SDS011;10906;45.194;5.684;2023-02-01T17:58:02;8.13;;;2.40;;
21488;SDS011;10906;45.194;5.684;2023-02-01T18:00:47;5.47;;;2.63;;
21488;SDS011;10906;45.194;5.684;2023-02-01T18:03:32;6.90;;;2.95;;
21488;SDS011;10906;45.194;5.684;2023-02-01T18:06:18;3.33;;;2.30;;
21488;SDS011;10906;45.194;5.684;2023-02-01T18:09:06;7.05;;;2.70;;
21488;SDS011;10906;45.194;5.684;2023-02-01T18:11:52;8.15;;;2.42;;
21488;SDS011;10906;45.194;5.684;2023-02-01T18:14:38;5.32;;;2.65;;
21488;SDS011;10906;45.194;5.684;2023-02-01T18:17:22;4.28;;;2.55;;
21488;SDS011;10906;45.194;5.684;2023-02-01T18:20:06;4.95;;;3.00;;
21488;SDS011;10906;45.194;5.684;2023-02-01T18:22:52;6.97;;;2.95;;
21488;SDS011;10906;45.194;5.684;2023-02-01T18:25:37;5.95;;;3.03;;
21488;SDS011;10906;45.194;5.684;2023-02-01T18:28:22;9.10;;;3.38;;
21488;SDS011;10906;45.194;5.684;2023-02-01T18:31:06;6.38;;;3.15;;
21488;SDS011;10906;45.194;5.684;2023-02-01T18:33:51;5.78;;;2.67;;
21488;SDS011;10906;45.194;5.684;2023-02-01T18:36:37;6.45;;;2.92;;
21488;SDS011;10906;45.194;5.684;2023-02-01T18:39:21;8.50;;;2.50;;
21488;SDS011;10906;45.194;5.684;2023-02-01T18:42:07;8.75;;;3.13;;
21488;SDS011;10906;45.194;5.684;2023-02-01T18:44:53;4.15;;;2.35;;
21488;SDS011;10906;45.194;5.684;2023-02-01T18:47:38;5.75;;;2.30;;
21488;SDS011;10906;45.194;5.684;2023-02-01T18:50:22;5.65;;;3.20;;
21488;SDS011;10906;45.194;5.684;2023-02-01T18:53:10;6.03;;;2.53;;
21488;SDS011;10906;45.194;5.684;2023-02-01T18:55:56;5.40;;;2.67;;
21488;SDS011;10906;45.194;5.684;2023-02-01T18:58:41;5.38;;;3.03;;
21488;SDS011;10906;45.194;5.684;2023-02-01T19:01:26;3.15;;;2.40;;
21488;SDS011;10906;45.194;5.684;2023-02-01T19:04:11;6.50;;;3.08;;
21488;SDS011;10906;45.194;5.684;2023-02-01T19:06:57;6.20;;;2.95;;
21488;SDS011;10906;45.194;5.684;2023-02-01T19:09:41;7.13;;;3.25;;
21488;SDS011;10906;45.194;5.684;2023-02-01T19:12:26;6.10;;;3.00;;
21488;SDS011;10906;45.194;5.684;2023-02-01T19:20:23;4.45;;;2.53;;
21488;SDS011;10906;45.194;5.684;2023-02-01T19:23:08;6.22;;;2.78;;
21488;SDS011;10906;45.194;5.684;2023-02-01T19:25:53;5.63;;;2.25;;
21488;SDS011;10906;45.194;5.684;2023-02-01T19:28:37;4.85;;;2.63;;
21488;SDS011;10906;45.194;5.684;2023-02-01T19:31:22;4.93;;;2.75;;
21488;SDS011;10906;45.194;5.684;2023-02-01T19:34:06;5.70;;;3.33;;
21488;SDS011;10906;45.194;5.684;2023-02-01T19:36:51;9.23;;;3.72;;
21488;SDS011;10906;45.194;5.684;2023-02-01T19:39:37;6.45;;;3.40;;
21488;SDS011;10906;45.194;5.684;2023-02-01T19:42:26;6.38;;;3.20;;
21488;SDS011;10906;45.194;5.684;2023-02-01T19:45:18;6.90;;;2.95;;
21488;SDS011;10906;45.194;5.684;2023-02-01T19:48:06;4.38;;;3.28;;
21488;SDS011;10906;45.194;5.684;2023-02-01T19:50:51;10.40;;;3.10;;
21488;SDS011;10906;45.194;5.684;2023-02-01T19:53:35;8.43;;;3.10;;
21488;SDS011;10906;45.194;5.684;2023-02-01T19:56:20;7.40;;;3.60;;
21488;SDS011;10906;45.194;5.684;2023-02-01T19:59:04;8.30;;;3.30;;
21488;SDS011;10906;45.194;5.684;2023-02-01T20:01:48;6.95;;;2.97;;
21488;SDS011;10906;45.194;5.684;2023-02-01T20:04:40;6.40;;;2.63;;
21488;SDS011;10906;45.194;5.684;2023-02-01T20:07:27;7.28;;;3.30;;
21488;SDS011;10906;45.194;5.684;2023-02-01T20:10:14;7.75;;;3.00;;
21488;SDS011;10906;45.194;5.684;2023-02-01T20:13:02;5.43;;;2.90;;
21488;SDS011;10906;45.194;5.684;2023-02-01T20:15:47;9.43;;;2.92;;
21488;SDS011;10906;45.194;5.684;2023-02-01T20:18:31;6.80;;;3.00;;
21488;SDS011;10906;45.194;5.684;2023-02-01T20:21:17;8.63;;;3.15;;
21488;SDS011;10906;45.194;5.684;2023-02-01T20:24:03;8.00;;;3.40;;
21488;SDS011;10906;45.194;5.684;2023-02-01T20:26:48;5.45;;;3.10;;
21488;SDS011;10906;45.194;5.684;2023-02-01T20:29:33;6.05;;;2.92;;
21488;SDS011;10906;45.194;5.684;2023-02-01T20:32:17;7.20;;;3.47;;
21488;SDS011;10906;45.194;5.684;2023-02-01T20:35:02;8.18;;;3.75;;
21488;SDS011;10906;45.194;5.684;2023-02-01T20:37:47;7.57;;;4.00;;
21488;SDS011;10906;45.194;5.684;2023-02-01T20:40:35;7.47;;;3.90;;
21488;SDS011;10906;45.194;5.684;2023-02-01T20:43:20;7.82;;;4.05;;
21488;SDS011;10906;45.194;5.684;2023-02-01T20:46:04;9.73;;;4.20;;
21488;SDS011;10906;45.194;5.684;2023-02-01T20:48:51;8.20;;;4.22;;
21488;SDS011;10906;45.194;5.684;2023-02-01T20:51:36;6.93;;;4.57;;
21488;SDS011;10906;45.194;5.684;2023-02-01T20:54:20;9.70;;;4.47;;
21488;SDS011;10906;45.194;5.684;2023-02-01T20:57:05;8.90;;;5.15;;
21488;SDS011;10906;45.194;5.684;2023-02-01T20:59:49;9.30;;;4.70;;
21488;SDS011;10906;45.194;5.684;2023-02-01T21:02:34;10.73;;;4.78;;
21488;SDS011;10906;45.194;5.684;2023-02-01T21:05:18;13.18;;;4.85;;
21488;SDS011;10906;45.194;5.684;2023-02-01T21:08:03;11.63;;;4.35;;
21488;SDS011;10906;45.194;5.684;2023-02-01T21:10:57;9.05;;;4.25;;
21488;SDS011;10906;45.194;5.684;2023-02-01T21:13:51;12.68;;;4.65;;
21488;SDS011;10906;45.194;5.684;2023-02-01T21:16:35;14.73;;;4.05;;
21488;SDS011;10906;45.194;5.684;2023-02-01T21:19:20;10.02;;;4.50;;
21488;SDS011;10906;45.194;5.684;2023-02-01T21:22:08;8.68;;;4.10;;
21488;SDS011;10906;45.194;5.684;2023-02-01T21:24:53;11.13;;;3.88;;
21488;SDS011;10906;45.194;5.684;2023-02-01T21:27:38;8.35;;;4.00;;
21488;SDS011;10906;45.194;5.684;2023-02-01T21:30:22;9.52;;;4.13;;
21488;SDS011;10906;45.194;5.684;2023-02-01T21:33:07;11.70;;;3.90;;
21488;SDS011;10906;45.194;5.684;2023-02-01T21:35:51;15.23;;;4.40;;
21488;SDS011;10906;45.194;5.684;2023-02-01T21:38:36;12.45;;;4.25;;
21488;SDS011;10906;45.194;5.684;2023-02-01T21:41:21;11.55;;;3.50;;
21488;SDS011;10906;45.194;5.684;2023-02-01T21:44:26;13.70;;;3.65;;
21488;SDS011;10906;45.194;5.684;2023-02-01T21:47:10;16.40;;;4.15;;
21488;SDS011;10906;45.194;5.684;2023-02-01T21:49:55;16.00;;;3.20;;
21488;SDS011;10906;45.194;5.684;2023-02-01T21:52:40;14.43;;;3.78;;
21488;SDS011;10906;45.194;5.684;2023-02-01T21:55:24;14.23;;;3.20;;
21488;SDS011;10906;45.194;5.684;2023-02-01T21:58:09;8.30;;;2.95;;
21488;SDS011;10906;45.194;5.684;2023-02-01T22:00:55;14.88;;;3.05;;
21488;SDS011;10906;45.194;5.684;2023-02-01T22:03:40;11.88;;;3.63;;
21488;SDS011;10906;45.194;5.684;2023-02-01T22:06:28;14.77;;;4.53;;
21488;SDS011;10906;45.194;5.684;2023-02-01T22:09:18;14.52;;;3.47;;
21488;SDS011;10906;45.194;5.684;2023-02-01T22:12:05;14.80;;;3.33;;
21488;SDS011;10906;45.194;5.684;2023-02-01T22:14:50;9.93;;;3.88;;
21488;SDS011;10906;45.194;5.684;2023-02-01T22:17:37;15.00;;;3.90;;
21488;SDS011;10906;45.194;5.684;2023-02-01T22:20:22;15.38;;;3.42;;
21488;SDS011;10906;45.194;5.684;2023-02-01T22:23:07;16.25;;;4.00;;
21488;SDS011;10906;45.194;5.684;2023-02-01T22:25:52;10.85;;;3.45;;
21488;SDS011;10906;45.194;5.684;2023-02-01T22:28:46;12.73;;;3.58;;
21488;SDS011;10906;45.194;5.684;2023-02-01T22:31:32;11.27;;;4.05;;
21488;SDS011;10906;45.194;5.684;2023-02-01T22:34:16;12.32;;;3.70;;
21488;SDS011;10906;45.194;5.684;2023-02-01T22:37:01;18.02;;;3.97;;
21488;SDS011;10906;45.194;5.684;2023-02-01T22:39:45;18.25;;;4.38;;
21488;SDS011;10906;45.194;5.684;2023-02-01T22:42:30;12.07;;;3.53;;
21488;SDS011;10906;45.194;5.684;2023-02-01T22:45:15;14.25;;;3.85;;
21488;SDS011;10906;45.194;5.684;2023-02-01T22:47:59;15.80;;;4.35;;
21488;SDS011;10906;45.194;5.684;2023-02-01T22:53:29;15.27;;;4.90;;
21488;SDS011;10906;45.194;5.684;2023-02-01T22:56:13;11.75;;;4.57;;
21488;SDS011;10906;45.194;5.684;2023-02-01T22:59:00;13.57;;;4.22;;
